Thursday, August 16, 2018, 12:01 AM EDT
Back to Local

KWRI, Mcguire Air Force Base

Location: Trenton, NJ, United States Lat: 40.017
Local Time: 12:01 AM EDT ( 4:01 GMT) Lon: -74.6
Time Zone: US/Eastern Elev: 134 ft

Show me the last for .
Show Coded

Time T Td Feel RH Dir Speed Gust Alt SLP Vis Weather Sky Remarks
2018-08-15 22:56 75 68 78 78 250° 6 - 29.98 29.98 10 CLR None
2018-08-15 21:56 75 69 79 80 220° 6 - 29.97 29.97 10 CLR None
2018-08-15 20:56 77 68 80 74 260° 5 - 29.96 29.96 10 CLR None
2018-08-15 19:56 81 68 85 64 280° 5 - 29.94 29.93 10 CLR 6-hr Min Temp (8pm): 80.6°F
6-hr Max Temp (8pm): 88.3°F
2018-08-15 18:56 85 68 89 57 270° 8 - 29.92 29.92 10 CLR None
2018-08-15 17:56 87 66 90 50 280° 10 - 29.92 29.92 10 CLR None
2018-08-15 16:56 88 66 91 48 300° 8 - 29.92 29.91 10 CLR None
2018-08-15 14:56 88 64 90 45 300° 10 - 29.92 - 10 FEW050 None
2018-08-15 13:56 88 68 92 52 280° 10 - 29.93 29.93 10 SCT043 SCT180 6-hr Min Temp (2pm): 73.2°F
6-hr Max Temp (2pm): 87.6°F
2018-08-15 12:56 86 69 90 56 290° 9 - 29.93 29.93 10 FEW038 None
2018-08-15 11:56 84 68 88 58 280° 7 - 29.93 29.93 10 CLR None
2018-08-15 10:56 82 68 86 63 290° 7 - 29.93 29.93 10 CLR None
2018-08-15 09:56 80 68 83 68 310° 8 - 29.93 29.93 10 CLR None
2018-08-15 08:56 76 67 79 73 310° 9 - 29.92 29.92 10 CLR None
2018-08-15 07:56 73 67 77 80 290° 8 - 29.90 29.90 10 CLR 6-hr Precip Total (8am): 0.00"
24-hr Precip Total (8am): 0.22"
6-hr Min Temp (8am): 68.4°F
6-hr Max Temp (8am): 73.0°F
2018-08-15 06:56 70 66 76 86 280° 6 - 29.89 29.89 10 CLR None
2018-08-15 05:56 69 67 - 92 270° 3 - 29.87 29.87 10 CLR None
2018-08-15 04:56 69 67 - 91 270° 6 - 29.86 29.86 10 FEW120 6-hr Precip Total (5am): 0.00"
2018-08-15 03:56 68 67 - 95 260° 5 - 29.86 29.85 10 FEW110 None
2018-08-15 02:56 69 67 - 94 250° 7 - 29.87 29.87 10 BKN130 1-hr Precip Total: Trace
2018-08-15 02:45 70 68 - 94 250° 7 - 29.86 29.85 10 BKN120 None
2018-08-15 02:35 70 68 - 94 260° 8 - 29.86 29.85 10 -RA SCT055 BKN120 None
2018-08-15 01:56 69 68 - 94 240° 6 - 29.87 29.87 10 FEW037 SCT050 BKN065 6-hr Precip Total (2am): 0.00"
6-hr Min Temp (2am): 68.2°F
6-hr Max Temp (2am): 70.5°F
2018-08-15 00:56 70 68 - 92 250° 9 - 29.87 - 10 BKN047 BKN060 24-hr Min Temp (1am): 65.3°F
24-hr Max Temp (1am): 83.3°F

Support USWX by starting your Amazon purchase here.